createdAt,value
2019-04-20T00:01:40.875Z,56.64
2019-04-20T00:06:48.366Z,56.93
2019-04-20T00:12:01.511Z,57.33
2019-04-20T00:16:54.882Z,57.68
2019-04-20T00:22:07.038Z,57.96
2019-04-20T00:27:32.730Z,58.66
2019-04-20T00:32:29.985Z,58.20
2019-04-20T00:37:21.120Z,58.16
2019-04-20T00:42:33.137Z,58.61
2019-04-20T00:47:41.883Z,59.15
2019-04-20T00:52:51.355Z,59.50
2019-04-20T00:57:48.729Z,59.43
2019-04-20T01:02:54.279Z,59.59
2019-04-20T01:07:57.010Z,59.97
2019-04-20T01:13:04.574Z,59.99
2019-04-20T01:18:02.664Z,60.09
2019-04-20T01:23:10.088Z,60.33
2019-04-20T01:28:29.943Z,60.54
2019-04-20T01:33:31.711Z,60.46
2019-04-20T01:38:34.656Z,60.55
2019-04-20T01:43:27.065Z,60.65
2019-04-20T01:48:35.328Z,60.65
2019-04-20T01:53:55.945Z,60.75
2019-04-20T01:58:58.294Z,60.80
2019-04-20T02:03:56.788Z,60.69
2019-04-20T02:09:04.629Z,60.75
2019-04-20T02:14:08.295Z,60.74
2019-04-20T02:19:27.836Z,60.96
2019-04-20T02:24:16.478Z,61.17
2019-04-20T02:29:43.156Z,61.94
2019-04-20T02:34:59.359Z,61.86
2019-04-20T02:45:20.446Z,61.38
2019-04-20T02:50:20.557Z,61.20
2019-04-20T02:55:26.903Z,61.21
2019-04-20T03:05:14.386Z,60.81
2019-04-20T03:10:39.383Z,60.80
2019-04-20T03:15:37.999Z,60.41
2019-04-20T03:20:41.683Z,60.88
2019-04-20T03:26:00.592Z,60.99
2019-04-20T03:36:21.758Z,61.35
2019-04-20T03:41:05.243Z,61.17
2019-04-20T03:46:03.171Z,60.89
2019-04-20T03:51:30.144Z,61.74
2019-04-20T03:56:47.391Z,61.59
2019-04-20T04:06:59.777Z,61.55
2019-04-20T04:12:37.171Z,61.21
2019-04-20T04:17:41.585Z,61.31
2019-04-20T04:23:00.413Z,62.04
2019-04-20T04:28:01.342Z,62.31
2019-04-20T04:33:44.511Z,61.73
2019-04-20T04:38:24.060Z,61.88
2019-04-20T04:43:22.467Z,62.09
2019-04-20T04:48:14.726Z,62.25
2019-04-20T04:53:28.458Z,62.75
2019-04-20T04:58:19.530Z,62.67
2019-04-20T05:03:40.234Z,62.72
2019-04-20T05:08:36.812Z,62.98
2019-04-20T05:13:41.888Z,62.49
2019-04-20T05:19:05.038Z,62.58
2019-04-20T05:24:09.971Z,61.96
2019-04-20T05:29:04.454Z,62.04
2019-04-20T05:34:25.484Z,61.75
2019-04-20T05:44:38.867Z,62.68
2019-04-20T05:49:34.908Z,62.02
2019-04-20T05:54:48.989Z,62.38
2019-04-20T05:59:55.770Z,62.02
2019-04-20T06:10:01.969Z,61.59
2019-04-20T06:15:15.388Z,61.68
2019-04-20T06:20:33.945Z,59.05
2019-04-20T06:26:01.483Z,57.81
2019-04-20T06:30:45.530Z,56.92
2019-04-20T06:46:12.958Z,55.44
2019-04-20T06:51:18.999Z,54.83
2019-04-20T06:56:24.322Z,53.54
2019-04-20T07:01:37.517Z,52.79
2019-04-20T07:11:42.545Z,50.21
2019-04-20T07:16:53.159Z,50.61
2019-04-20T07:22:25.057Z,51.55
2019-04-20T07:27:19.693Z,47.86
2019-04-20T07:32:13.256Z,46.08
2019-04-20T07:42:40.736Z,47.89
2019-04-20T07:47:47.813Z,44.55
2019-04-20T07:52:42.265Z,48.20
2019-04-20T07:57:50.053Z,47.42
2019-04-20T08:03:22.092Z,47.62
2019-04-20T08:08:27.172Z,47.00
2019-04-20T08:18:41.598Z,43.22
2019-04-20T08:23:41.761Z,42.18
2019-04-20T08:28:36.014Z,40.80
2019-04-20T08:34:01.892Z,40.70
2019-04-20T08:44:30.934Z,39.13
2019-04-20T08:49:10.033Z,39.15
2019-04-20T08:54:12.011Z,39.01
2019-04-20T08:59:00.333Z,39.13
2019-04-20T09:04:12.721Z,37.13
2019-04-20T09:09:37.555Z,37.66
2019-04-20T09:14:21.349Z,38.33
2019-04-20T09:19:36.550Z,36.92
2019-04-20T09:24:52.763Z,36.70
2019-04-20T09:29:44.883Z,36.30
2019-04-20T09:35:01.072Z,35.18
2019-04-20T11:01:22.078Z,28.45
2019-04-20T11:06:26.814Z,27.46
2019-04-20T11:11:32.045Z,28.66
2019-04-20T11:16:36.134Z,26.21
2019-04-20T11:21:40.817Z,26.29
2019-04-20T11:26:45.065Z,25.94
2019-04-20T11:31:53.065Z,26.05
2019-04-20T11:36:55.125Z,25.67
2019-04-20T11:41:59.523Z,25.59
2019-04-20T11:47:03.136Z,25.24
2019-04-20T11:52:07.710Z,25.68
2019-04-20T11:57:11.537Z,24.69
2019-04-20T12:02:25.510Z,25.66
2019-04-20T12:07:24.989Z,24.45
2019-04-20T12:12:38.039Z,24.03
2019-04-20T12:17:33.778Z,23.63
2019-04-20T12:22:37.246Z,24.19
2019-04-20T12:27:47.537Z,22.84
2019-04-20T12:32:51.923Z,22.54
2019-04-20T12:37:51.369Z,22.56
2019-04-20T12:42:55.064Z,22.95
2019-04-20T12:47:59.592Z,22.16
2019-04-20T12:53:04.367Z,21.93
2019-04-20T12:58:08.331Z,21.77
2019-04-20T13:03:11.978Z,22.20
2019-04-20T13:08:21.734Z,23.04
2019-04-20T13:13:36.520Z,24.49
2019-04-20T13:18:45.440Z,25.27
2019-04-20T13:23:49.184Z,25.09
2019-04-20T13:28:52.955Z,24.10
2019-04-20T13:33:57.144Z,24.16
2019-04-20T13:39:01.761Z,23.26
2019-04-20T13:44:06.533Z,23.59
2019-04-20T13:49:11.163Z,23.11
2019-04-20T13:54:18.939Z,22.57
2019-04-20T13:59:25.512Z,22.77
2019-04-20T14:04:31.006Z,22.29
2019-04-20T14:09:35.403Z,22.55
2019-04-20T14:14:39.277Z,21.86
2019-04-20T14:19:43.158Z,22.93
2019-04-20T14:24:46.864Z,21.75
2019-04-20T14:29:50.914Z,23.45
2019-04-20T14:34:54.547Z,24.16
2019-04-20T14:39:58.510Z,23.24
2019-04-20T14:45:02.097Z,23.92
2019-04-20T14:50:07.647Z,24.07
2019-04-20T14:55:15.232Z,23.04
2019-04-20T15:00:37.491Z,23.57
2019-04-20T15:05:43.252Z,23.81
2019-04-20T15:10:46.951Z,24.34
2019-04-20T15:15:50.711Z,24.90
2019-04-20T15:20:55.869Z,25.19
2019-04-20T15:26:00.289Z,25.65
2019-04-20T15:31:03.854Z,26.14
2019-04-20T15:36:08.286Z,25.29
2019-04-20T15:41:13.862Z,27.89
2019-04-20T15:46:17.286Z,26.83
2019-04-20T15:51:21.707Z,27.53
2019-04-20T15:56:25.594Z,27.43
2019-04-20T16:01:34.589Z,26.94
2019-04-20T16:06:39.236Z,27.02
2019-04-20T16:11:42.825Z,26.54
2019-04-20T16:16:46.592Z,27.02
2019-04-20T16:21:50.139Z,26.99
2019-04-20T16:26:55.722Z,27.19
2019-04-20T16:32:00.498Z,27.18
2019-04-20T16:37:04.348Z,27.21
2019-04-20T16:42:09.569Z,27.00
2019-04-20T16:47:14.253Z,27.67
2019-04-20T16:52:19.075Z,28.47
2019-04-20T16:57:23.673Z,29.33
2019-04-20T17:02:27.363Z,29.07
2019-04-20T17:07:33.230Z,29.19
2019-04-20T17:12:37.590Z,30.20
2019-04-20T17:17:41.236Z,30.06
2019-04-20T17:22:44.674Z,30.80
2019-04-20T17:27:55.569Z,31.73
2019-04-20T17:33:04.208Z,32.45
2019-04-20T17:38:08.981Z,32.51
2019-04-20T17:43:22.068Z,33.61
2019-04-20T17:48:30.388Z,33.48
2019-04-20T17:53:37.441Z,33.50
2019-04-20T17:58:35.046Z,33.60
2019-04-20T18:04:18.726Z,34.45
2019-04-20T18:08:58.366Z,34.33
2019-04-20T18:13:58.876Z,34.70
2019-04-20T18:19:06.194Z,37.67
2019-04-20T18:24:13.727Z,36.95
2019-04-20T18:29:32.520Z,36.36
2019-04-20T18:34:20.634Z,37.05
2019-04-20T18:39:29.256Z,37.14
2019-04-20T18:44:45.609Z,36.32
2019-04-20T18:49:41.041Z,36.32
2019-04-20T18:54:43.722Z,37.44
2019-04-20T18:59:50.466Z,37.40
2019-04-20T19:04:50.067Z,38.68
2019-04-20T19:10:03.874Z,39.55
2019-04-20T19:15:13.463Z,39.91
2019-04-20T19:20:14.035Z,40.81
2019-04-20T19:25:25.654Z,40.94
2019-04-20T19:30:34.402Z,40.47
2019-04-20T19:35:40.444Z,41.01
2019-04-20T19:40:47.898Z,40.71
2019-04-20T19:46:07.412Z,40.06
2019-04-20T19:51:06.905Z,39.88
2019-04-20T19:56:03.498Z,40.30
2019-04-20T20:00:57.799Z,40.01
2019-04-20T20:06:01.555Z,40.15
2019-04-20T20:11:08.475Z,39.61
2019-04-20T20:16:17.913Z,40.41
2019-04-20T20:21:28.740Z,40.23
2019-04-20T20:26:29.153Z,40.48
2019-04-20T20:31:45.393Z,41.63
2019-04-20T20:36:44.020Z,41.93
2019-04-20T20:41:50.381Z,41.59
2019-04-20T20:46:55.141Z,41.68
2019-04-20T20:52:09.806Z,40.59
2019-04-20T20:57:01.445Z,40.48
2019-04-20T21:02:06.491Z,42.17
2019-04-20T21:07:02.812Z,42.81
2019-04-20T21:12:10.889Z,43.47
2019-04-20T21:17:17.768Z,43.02
2019-04-20T21:22:33.605Z,42.78
2019-04-20T21:27:23.793Z,42.70
2019-04-20T21:32:28.236Z,43.69
2019-04-20T21:37:32.745Z,44.26
2019-04-20T21:42:45.545Z,44.60
2019-04-20T21:47:44.720Z,44.40
2019-04-20T21:52:51.963Z,44.60
2019-04-20T21:57:55.387Z,44.70
2019-04-20T22:03:04.107Z,44.68
2019-04-20T22:08:07.885Z,44.82
2019-04-20T22:13:09.964Z,46.04
2019-04-20T22:18:17.814Z,46.45
2019-04-20T22:23:36.538Z,46.16
2019-04-20T22:28:24.391Z,46.63
2019-04-20T22:33:33.594Z,46.93
2019-04-20T22:38:45.183Z,46.60
2019-04-20T22:43:44.594Z,47.40
2019-04-20T22:49:00.710Z,48.81
2019-04-20T22:54:08.549Z,49.52
2019-04-20T22:59:07.428Z,49.21
2019-04-20T23:04:04.392Z,49.20
2019-04-20T23:09:11.699Z,49.93
2019-04-20T23:14:16.255Z,50.18
2019-04-20T23:19:32.293Z,50.70
2019-04-20T23:24:24.998Z,51.45
2019-04-20T23:29:32.659Z,51.58
2019-04-20T23:34:34.566Z,52.17
2019-04-20T23:39:41.583Z,52.01
2019-04-20T23:44:51.264Z,51.98
2019-04-20T23:50:11.317Z,51.05
2019-04-20T23:55:04.349Z,51.92
